sensor_id;sensor_type;location;lat;lon;timestamp;P1;durP1;ratioP1;P2;durP2;ratioP2
20080;SDS011;10200;49.232;9.222;2022-07-01T00:00:57;3.10;;;0.90;;
20080;SDS011;10200;49.232;9.222;2022-07-01T00:03:22;2.40;;;0.77;;
20080;SDS011;10200;49.232;9.222;2022-07-01T00:05:48;0.77;;;0.50;;
20080;SDS011;10200;49.232;9.222;2022-07-01T00:08:14;4.63;;;0.87;;
20080;SDS011;10200;49.232;9.222;2022-07-01T00:10:40;3.90;;;1.00;;
20080;SDS011;10200;49.232;9.222;2022-07-01T00:13:06;0.60;;;0.60;;
20080;SDS011;10200;49.232;9.222;2022-07-01T00:15:32;0.50;;;0.50;;
20080;SDS011;10200;49.232;9.222;2022-07-01T00:17:57;1.40;;;0.60;;
20080;SDS011;10200;49.232;9.222;2022-07-01T00:20:23;1.90;;;0.70;;
20080;SDS011;10200;49.232;9.222;2022-07-01T00:22:49;0.57;;;0.50;;
20080;SDS011;10200;49.232;9.222;2022-07-01T00:25:15;1.70;;;0.87;;
20080;SDS011;10200;49.232;9.222;2022-07-01T00:27:41;0.60;;;0.60;;
20080;SDS011;10200;49.232;9.222;2022-07-01T00:30:07;3.03;;;0.77;;
20080;SDS011;10200;49.232;9.222;2022-07-01T00:32:34;3.80;;;0.70;;
20080;SDS011;10200;49.232;9.222;2022-07-01T00:35:00;0.93;;;0.57;;
20080;SDS011;10200;49.232;9.222;2022-07-01T00:37:26;2.00;;;0.80;;
20080;SDS011;10200;49.232;9.222;2022-07-01T00:39:52;1.57;;;0.50;;
20080;SDS011;10200;49.232;9.222;2022-07-01T00:42:17;3.27;;;0.83;;
20080;SDS011;10200;49.232;9.222;2022-07-01T00:44:43;3.40;;;0.80;;
20080;SDS011;10200;49.232;9.222;2022-07-01T00:47:11;0.83;;;0.67;;
20080;SDS011;10200;49.232;9.222;2022-07-01T00:49:38;0.77;;;0.60;;
20080;SDS011;10200;49.232;9.222;2022-07-01T00:52:07;2.40;;;0.80;;
20080;SDS011;10200;49.232;9.222;2022-07-01T00:54:35;1.33;;;0.77;;
20080;SDS011;10200;49.232;9.222;2022-07-01T00:57:09;2.87;;;0.70;;
20080;SDS011;10200;49.232;9.222;2022-07-01T00:59:36;1.50;;;0.77;;
20080;SDS011;10200;49.232;9.222;2022-07-01T01:02:04;2.70;;;0.70;;
20080;SDS011;10200;49.232;9.222;2022-07-01T01:04:31;1.10;;;0.60;;
20080;SDS011;10200;49.232;9.222;2022-07-01T01:06:57;1.83;;;0.97;;
20080;SDS011;10200;49.232;9.222;2022-07-01T01:09:25;1.93;;;0.90;;
20080;SDS011;10200;49.232;9.222;2022-07-01T01:11:50;1.53;;;0.80;;
20080;SDS011;10200;49.232;9.222;2022-07-01T01:14:16;1.90;;;0.83;;
20080;SDS011;10200;49.232;9.222;2022-07-01T01:16:41;1.17;;;0.80;;
20080;SDS011;10200;49.232;9.222;2022-07-01T01:19:07;2.20;;;0.70;;
20080;SDS011;10200;49.232;9.222;2022-07-01T01:21:33;0.97;;;0.40;;
20080;SDS011;10200;49.232;9.222;2022-07-01T01:23:59;1.43;;;0.70;;
20080;SDS011;10200;49.232;9.222;2022-07-01T01:26:25;0.87;;;0.70;;
20080;SDS011;10200;49.232;9.222;2022-07-01T01:28:51;0.60;;;0.60;;
20080;SDS011;10200;49.232;9.222;2022-07-01T01:31:18;0.40;;;0.40;;
20080;SDS011;10200;49.232;9.222;2022-07-01T01:33:56;2.27;;;0.63;;
20080;SDS011;10200;49.232;9.222;2022-07-01T01:36:21;0.63;;;0.60;;
20080;SDS011;10200;49.232;9.222;2022-07-01T01:38:47;3.00;;;0.53;;
20080;SDS011;10200;49.232;9.222;2022-07-01T01:41:13;0.80;;;0.77;;
20080;SDS011;10200;49.232;9.222;2022-07-01T01:43:38;0.50;;;0.50;;
20080;SDS011;10200;49.232;9.222;2022-07-01T01:46:04;2.27;;;1.00;;
20080;SDS011;10200;49.232;9.222;2022-07-01T01:48:30;1.80;;;0.90;;
20080;SDS011;10200;49.232;9.222;2022-07-01T01:50:56;0.80;;;0.70;;
20080;SDS011;10200;49.232;9.222;2022-07-01T01:53:22;0.80;;;0.63;;
20080;SDS011;10200;49.232;9.222;2022-07-01T01:55:48;2.13;;;1.00;;
20080;SDS011;10200;49.232;9.222;2022-07-01T01:58:14;1.17;;;0.70;;
20080;SDS011;10200;49.232;9.222;2022-07-01T02:00:40;1.27;;;0.77;;
20080;SDS011;10200;49.232;9.222;2022-07-01T02:03:05;5.20;;;0.90;;
20080;SDS011;10200;49.232;9.222;2022-07-01T02:05:31;0.97;;;0.70;;
20080;SDS011;10200;49.232;9.222;2022-07-01T02:07:57;2.47;;;0.80;;
20080;SDS011;10200;49.232;9.222;2022-07-01T02:10:22;1.30;;;0.60;;
20080;SDS011;10200;49.232;9.222;2022-07-01T02:12:48;1.60;;;0.80;;
20080;SDS011;10200;49.232;9.222;2022-07-01T02:15:14;0.60;;;0.60;;
20080;SDS011;10200;49.232;9.222;2022-07-01T02:17:39;0.53;;;0.53;;
20080;SDS011;10200;49.232;9.222;2022-07-01T02:20:05;0.60;;;0.53;;
20080;SDS011;10200;49.232;9.222;2022-07-01T02:22:31;0.93;;;0.60;;
20080;SDS011;10200;49.232;9.222;2022-07-01T02:24:56;1.23;;;0.70;;
20080;SDS011;10200;49.232;9.222;2022-07-01T02:27:22;0.57;;;0.57;;
20080;SDS011;10200;49.232;9.222;2022-07-01T02:29:47;1.37;;;0.60;;
20080;SDS011;10200;49.232;9.222;2022-07-01T02:32:13;0.43;;;0.43;;
20080;SDS011;10200;49.232;9.222;2022-07-01T02:34:39;1.23;;;0.47;;
20080;SDS011;10200;49.232;9.222;2022-07-01T02:37:04;0.77;;;0.50;;
20080;SDS011;10200;49.232;9.222;2022-07-01T02:39:31;0.43;;;0.40;;
20080;SDS011;10200;49.232;9.222;2022-07-01T02:41:57;1.27;;;0.43;;
20080;SDS011;10200;49.232;9.222;2022-07-01T02:44:42;0.43;;;0.43;;
20080;SDS011;10200;49.232;9.222;2022-07-01T02:47:07;1.13;;;0.70;;
20080;SDS011;10200;49.232;9.222;2022-07-01T02:49:33;0.63;;;0.60;;
20080;SDS011;10200;49.232;9.222;2022-07-01T02:51:58;1.73;;;0.40;;
20080;SDS011;10200;49.232;9.222;2022-07-01T02:54:24;1.73;;;0.50;;
20080;SDS011;10200;49.232;9.222;2022-07-01T02:56:49;0.40;;;0.40;;
20080;SDS011;10200;49.232;9.222;2022-07-01T02:59:15;1.13;;;0.67;;
20080;SDS011;10200;49.232;9.222;2022-07-01T03:01:41;0.50;;;0.50;;
20080;SDS011;10200;49.232;9.222;2022-07-01T03:04:06;1.80;;;0.50;;
20080;SDS011;10200;49.232;9.222;2022-07-01T03:06:32;2.83;;;1.73;;
20080;SDS011;10200;49.232;9.222;2022-07-01T03:08:57;0.67;;;0.67;;
20080;SDS011;10200;49.232;9.222;2022-07-01T03:11:23;0.67;;;0.60;;
20080;SDS011;10200;49.232;9.222;2022-07-01T03:13:49;0.47;;;0.47;;
20080;SDS011;10200;49.232;9.222;2022-07-01T03:16:14;0.40;;;0.40;;
20080;SDS011;10200;49.232;9.222;2022-07-01T03:18:40;0.60;;;0.60;;
20080;SDS011;10200;49.232;9.222;2022-07-01T03:21:05;0.83;;;0.50;;
20080;SDS011;10200;49.232;9.222;2022-07-01T03:23:31;1.13;;;0.50;;
20080;SDS011;10200;49.232;9.222;2022-07-01T03:25:57;0.50;;;0.50;;
20080;SDS011;10200;49.232;9.222;2022-07-01T03:28:22;3.93;;;0.70;;
20080;SDS011;10200;49.232;9.222;2022-07-01T03:30:48;0.83;;;0.60;;
20080;SDS011;10200;49.232;9.222;2022-07-01T03:33:13;1.10;;;0.80;;
20080;SDS011;10200;49.232;9.222;2022-07-01T03:35:39;1.80;;;0.60;;
20080;SDS011;10200;49.232;9.222;2022-07-01T03:38:06;2.30;;;0.70;;
20080;SDS011;10200;49.232;9.222;2022-07-01T03:40:32;2.57;;;0.50;;
20080;SDS011;10200;49.232;9.222;2022-07-01T03:42:58;2.07;;;0.80;;
20080;SDS011;10200;49.232;9.222;2022-07-01T03:45:24;3.50;;;0.60;;
20080;SDS011;10200;49.232;9.222;2022-07-01T03:47:50;2.53;;;0.80;;
20080;SDS011;10200;49.232;9.222;2022-07-01T03:50:17;1.23;;;0.70;;
20080;SDS011;10200;49.232;9.222;2022-07-01T03:52:45;1.43;;;0.80;;
20080;SDS011;10200;49.232;9.222;2022-07-01T03:55:11;0.80;;;0.80;;
20080;SDS011;10200;49.232;9.222;2022-07-01T03:57:37;0.80;;;0.67;;
20080;SDS011;10200;49.232;9.222;2022-07-01T04:00:06;2.40;;;0.80;;
20080;SDS011;10200;49.232;9.222;2022-07-01T04:02:33;2.30;;;0.70;;
20080;SDS011;10200;49.232;9.222;2022-07-01T04:04:58;1.17;;;0.90;;
20080;SDS011;10200;49.232;9.222;2022-07-01T04:07:24;1.63;;;0.80;;
20080;SDS011;10200;49.232;9.222;2022-07-01T04:09:51;3.70;;;1.17;;
20080;SDS011;10200;49.232;9.222;2022-07-01T04:12:17;1.20;;;1.10;;
20080;SDS011;10200;49.232;9.222;2022-07-01T04:14:44;1.30;;;1.10;;
20080;SDS011;10200;49.232;9.222;2022-07-01T04:17:10;1.13;;;1.00;;
20080;SDS011;10200;49.232;9.222;2022-07-01T04:19:36;3.03;;;1.20;;
20080;SDS011;10200;49.232;9.222;2022-07-01T04:22:02;1.87;;;1.17;;
20080;SDS011;10200;49.232;9.222;2022-07-01T04:24:46;1.27;;;1.17;;
20080;SDS011;10200;49.232;9.222;2022-07-01T04:27:12;1.50;;;1.00;;
20080;SDS011;10200;49.232;9.222;2022-07-01T04:29:37;2.63;;;1.13;;
20080;SDS011;10200;49.232;9.222;2022-07-01T04:32:03;2.37;;;0.90;;
20080;SDS011;10200;49.232;9.222;2022-07-01T04:34:29;1.63;;;1.03;;
20080;SDS011;10200;49.232;9.222;2022-07-01T04:36:54;1.27;;;1.17;;
20080;SDS011;10200;49.232;9.222;2022-07-01T04:39:21;1.30;;;1.03;;
20080;SDS011;10200;49.232;9.222;2022-07-01T04:41:46;2.00;;;0.93;;
20080;SDS011;10200;49.232;9.222;2022-07-01T04:44:24;2.20;;;1.30;;
20080;SDS011;10200;49.232;9.222;2022-07-01T04:46:50;1.07;;;0.97;;
20080;SDS011;10200;49.232;9.222;2022-07-01T04:49:16;1.57;;;1.07;;
20080;SDS011;10200;49.232;9.222;2022-07-01T04:51:41;2.10;;;1.00;;
20080;SDS011;10200;49.232;9.222;2022-07-01T04:54:07;1.53;;;1.00;;
20080;SDS011;10200;49.232;9.222;2022-07-01T04:56:34;6.40;;;1.53;;
20080;SDS011;10200;49.232;9.222;2022-07-01T04:59:00;1.50;;;1.20;;
20080;SDS011;10200;49.232;9.222;2022-07-01T05:01:26;2.90;;;0.90;;
20080;SDS011;10200;49.232;9.222;2022-07-01T05:03:53;2.17;;;1.13;;
20080;SDS011;10200;49.232;9.222;2022-07-01T05:06:19;1.87;;;1.33;;
20080;SDS011;10200;49.232;9.222;2022-07-01T05:08:45;1.23;;;1.00;;
20080;SDS011;10200;49.232;9.222;2022-07-01T05:11:10;1.53;;;1.40;;
20080;SDS011;10200;49.232;9.222;2022-07-01T05:13:36;1.20;;;1.10;;
20080;SDS011;10200;49.232;9.222;2022-07-01T05:16:02;1.73;;;1.20;;
20080;SDS011;10200;49.232;9.222;2022-07-01T05:18:29;2.17;;;1.40;;
20080;SDS011;10200;49.232;9.222;2022-07-01T05:21:13;1.27;;;1.17;;
20080;SDS011;10200;49.232;9.222;2022-07-01T05:23:57;3.33;;;1.50;;
20080;SDS011;10200;49.232;9.222;2022-07-01T05:26:23;1.47;;;1.37;;
20080;SDS011;10200;49.232;9.222;2022-07-01T05:28:51;1.20;;;1.10;;
20080;SDS011;10200;49.232;9.222;2022-07-01T05:31:17;2.07;;;1.17;;
20080;SDS011;10200;49.232;9.222;2022-07-01T05:33:42;1.33;;;1.17;;
20080;SDS011;10200;49.232;9.222;2022-07-01T05:36:08;2.60;;;1.50;;
20080;SDS011;10200;49.232;9.222;2022-07-01T05:38:34;1.20;;;1.10;;
20080;SDS011;10200;49.232;9.222;2022-07-01T05:41:00;1.23;;;1.10;;
20080;SDS011;10200;49.232;9.222;2022-07-01T05:43:26;1.50;;;1.40;;
20080;SDS011;10200;49.232;9.222;2022-07-01T05:45:51;1.37;;;1.20;;
20080;SDS011;10200;49.232;9.222;2022-07-01T05:48:17;3.30;;;1.50;;
20080;SDS011;10200;49.232;9.222;2022-07-01T05:50:42;3.60;;;1.53;;
20080;SDS011;10200;49.232;9.222;2022-07-01T05:53:08;2.43;;;1.50;;
20080;SDS011;10200;49.232;9.222;2022-07-01T05:55:34;3.17;;;1.40;;
20080;SDS011;10200;49.232;9.222;2022-07-01T05:58:00;3.13;;;1.43;;
20080;SDS011;10200;49.232;9.222;2022-07-01T06:00:26;1.40;;;1.30;;
20080;SDS011;10200;49.232;9.222;2022-07-01T06:02:53;1.40;;;1.20;;
20080;SDS011;10200;49.232;9.222;2022-07-01T06:05:18;1.40;;;1.30;;
20080;SDS011;10200;49.232;9.222;2022-07-01T06:07:44;3.07;;;1.30;;
20080;SDS011;10200;49.232;9.222;2022-07-01T06:10:10;1.17;;;1.07;;
20080;SDS011;10200;49.232;9.222;2022-07-01T06:12:39;1.33;;;1.23;;
20080;SDS011;10200;49.232;9.222;2022-07-01T06:15:06;1.30;;;1.20;;
20080;SDS011;10200;49.232;9.222;2022-07-01T06:17:33;4.30;;;2.20;;
20080;SDS011;10200;49.232;9.222;2022-07-01T06:20:00;4.57;;;1.60;;
20080;SDS011;10200;49.232;9.222;2022-07-01T06:22:25;1.50;;;1.40;;
20080;SDS011;10200;49.232;9.222;2022-07-01T06:24:51;2.53;;;1.80;;
20080;SDS011;10200;49.232;9.222;2022-07-01T06:27:16;2.17;;;1.60;;
20080;SDS011;10200;49.232;9.222;2022-07-01T06:29:42;5.80;;;1.93;;
20080;SDS011;10200;49.232;9.222;2022-07-01T06:32:07;3.60;;;1.70;;
20080;SDS011;10200;49.232;9.222;2022-07-01T06:34:33;2.67;;;1.43;;
20080;SDS011;10200;49.232;9.222;2022-07-01T06:37:00;1.70;;;1.60;;
20080;SDS011;10200;49.232;9.222;2022-07-01T06:39:26;2.33;;;1.53;;
20080;SDS011;10200;49.232;9.222;2022-07-01T06:41:52;2.20;;;2.00;;
20080;SDS011;10200;49.232;9.222;2022-07-01T06:44:18;2.00;;;1.80;;
20080;SDS011;10200;49.232;9.222;2022-07-01T06:46:44;3.00;;;2.13;;
20080;SDS011;10200;49.232;9.222;2022-07-01T06:49:10;4.07;;;2.03;;
20080;SDS011;10200;49.232;9.222;2022-07-01T06:51:36;2.93;;;2.00;;
20080;SDS011;10200;49.232;9.222;2022-07-01T06:54:01;6.00;;;2.40;;
20080;SDS011;10200;49.232;9.222;2022-07-01T06:56:27;1.90;;;1.80;;
20080;SDS011;10200;49.232;9.222;2022-07-01T06:58:53;2.40;;;1.60;;
20080;SDS011;10200;49.232;9.222;2022-07-01T07:01:19;1.97;;;1.77;;
20080;SDS011;10200;49.232;9.222;2022-07-01T07:03:45;2.10;;;1.73;;
20080;SDS011;10200;49.232;9.222;2022-07-01T07:06:11;2.80;;;1.43;;
20080;SDS011;10200;49.232;9.222;2022-07-01T07:08:36;3.80;;;1.53;;
20080;SDS011;10200;49.232;9.222;2022-07-01T07:11:03;4.13;;;1.63;;
20080;SDS011;10200;49.232;9.222;2022-07-01T07:13:29;2.23;;;1.50;;
20080;SDS011;10200;49.232;9.222;2022-07-01T07:15:54;1.70;;;1.50;;
20080;SDS011;10200;49.232;9.222;2022-07-01T07:18:20;1.83;;;1.63;;
20080;SDS011;10200;49.232;9.222;2022-07-01T07:20:46;2.53;;;2.03;;
20080;SDS011;10200;49.232;9.222;2022-07-01T07:23:15;2.27;;;1.70;;
20080;SDS011;10200;49.232;9.222;2022-07-01T07:25:40;3.13;;;1.67;;
20080;SDS011;10200;49.232;9.222;2022-07-01T07:28:06;2.17;;;1.70;;
20080;SDS011;10200;49.232;9.222;2022-07-01T07:30:32;2.17;;;1.60;;
20080;SDS011;10200;49.232;9.222;2022-07-01T07:32:57;3.27;;;2.13;;
20080;SDS011;10200;49.232;9.222;2022-07-01T07:35:23;3.63;;;2.00;;
20080;SDS011;10200;49.232;9.222;2022-07-01T07:37:49;2.27;;;1.90;;
20080;SDS011;10200;49.232;9.222;2022-07-01T07:40:15;3.03;;;1.70;;
20080;SDS011;10200;49.232;9.222;2022-07-01T07:42:43;2.27;;;1.67;;
20080;SDS011;10200;49.232;9.222;2022-07-01T07:45:13;2.03;;;1.83;;
20080;SDS011;10200;49.232;9.222;2022-07-01T07:47:43;2.27;;;1.80;;
20080;SDS011;10200;49.232;9.222;2022-07-01T07:50:10;2.20;;;2.00;;
20080;SDS011;10200;49.232;9.222;2022-07-01T07:52:37;2.97;;;1.70;;
20080;SDS011;10200;49.232;9.222;2022-07-01T07:55:04;2.00;;;1.77;;
20080;SDS011;10200;49.232;9.222;2022-07-01T07:57:31;4.13;;;2.10;;
20080;SDS011;10200;49.232;9.222;2022-07-01T07:59:56;2.37;;;1.40;;
20080;SDS011;10200;49.232;9.222;2022-07-01T08:02:22;2.33;;;1.97;;
20080;SDS011;10200;49.232;9.222;2022-07-01T08:04:48;3.17;;;2.33;;
20080;SDS011;10200;49.232;9.222;2022-07-01T08:07:13;2.40;;;2.00;;
20080;SDS011;10200;49.232;9.222;2022-07-01T08:09:39;3.00;;;1.83;;
20080;SDS011;10200;49.232;9.222;2022-07-01T08:12:07;2.03;;;1.63;;
20080;SDS011;10200;49.232;9.222;2022-07-01T08:14:32;1.93;;;1.53;;
20080;SDS011;10200;49.232;9.222;2022-07-01T08:16:58;2.97;;;1.60;;
20080;SDS011;10200;49.232;9.222;2022-07-01T08:19:24;2.07;;;1.60;;
20080;SDS011;10200;49.232;9.222;2022-07-01T08:21:49;1.63;;;1.53;;
20080;SDS011;10200;49.232;9.222;2022-07-01T08:24:15;2.30;;;1.53;;
20080;SDS011;10200;49.232;9.222;2022-07-01T08:26:40;1.60;;;1.50;;
20080;SDS011;10200;49.232;9.222;2022-07-01T08:29:06;2.13;;;1.40;;
20080;SDS011;10200;49.232;9.222;2022-07-01T08:31:32;1.57;;;1.43;;
20080;SDS011;10200;49.232;9.222;2022-07-01T08:33:57;1.67;;;1.40;;
20080;SDS011;10200;49.232;9.222;2022-07-01T08:36:23;1.77;;;1.57;;
20080;SDS011;10200;49.232;9.222;2022-07-01T08:38:49;1.40;;;1.30;;
20080;SDS011;10200;49.232;9.222;2022-07-01T08:41:15;1.70;;;1.60;;
20080;SDS011;10200;49.232;9.222;2022-07-01T08:43:41;1.70;;;1.60;;
20080;SDS011;10200;49.232;9.222;2022-07-01T08:46:06;2.13;;;1.83;;
20080;SDS011;10200;49.232;9.222;2022-07-01T08:48:33;2.50;;;1.67;;
20080;SDS011;10200;49.232;9.222;2022-07-01T08:50:59;2.87;;;1.43;;
20080;SDS011;10200;49.232;9.222;2022-07-01T08:53:29;1.83;;;1.57;;
20080;SDS011;10200;49.232;9.222;2022-07-01T08:55:56;2.70;;;2.10;;
20080;SDS011;10200;49.232;9.222;2022-07-01T08:58:40;2.50;;;1.60;;
20080;SDS011;10200;49.232;9.222;2022-07-01T09:01:12;4.57;;;1.40;;
20080;SDS011;10200;49.232;9.222;2022-07-01T09:03:38;3.67;;;1.87;;
20080;SDS011;10200;49.232;9.222;2022-07-01T09:06:03;4.03;;;1.80;;
20080;SDS011;10200;49.232;9.222;2022-07-01T09:08:37;1.60;;;1.47;;
20080;SDS011;10200;49.232;9.222;2022-07-01T09:11:16;1.50;;;1.40;;
20080;SDS011;10200;49.232;9.222;2022-07-01T09:16:41;3.00;;;1.63;;
20080;SDS011;10200;49.232;9.222;2022-07-01T09:19:16;2.07;;;1.80;;
20080;SDS011;10200;49.232;9.222;2022-07-01T09:21:42;1.50;;;1.40;;
20080;SDS011;10200;49.232;9.222;2022-07-01T09:27:05;1.80;;;1.70;;
20080;SDS011;10200;49.232;9.222;2022-07-01T09:29:59;2.23;;;1.80;;
20080;SDS011;10200;49.232;9.222;2022-07-01T09:32:24;2.10;;;1.90;;
20080;SDS011;10200;49.232;9.222;2022-07-01T09:34:53;3.00;;;1.83;;
20080;SDS011;10200;49.232;9.222;2022-07-01T09:37:20;2.77;;;2.57;;
20080;SDS011;10200;49.232;9.222;2022-07-01T09:39:51;2.97;;;2.47;;
20080;SDS011;10200;49.232;9.222;2022-07-01T09:42:19;2.00;;;1.90;;
20080;SDS011;10200;49.232;9.222;2022-07-01T09:44:55;3.27;;;2.13;;
20080;SDS011;10200;49.232;9.222;2022-07-01T09:47:23;2.23;;;2.03;;
20080;SDS011;10200;49.232;9.222;2022-07-01T09:49:50;2.40;;;1.77;;
20080;SDS011;10200;49.232;9.222;2022-07-01T09:52:16;2.17;;;2.00;;
20080;SDS011;10200;49.232;9.222;2022-07-01T09:54:43;2.60;;;2.40;;
20080;SDS011;10200;49.232;9.222;2022-07-01T09:57:12;2.10;;;1.90;;
20080;SDS011;10200;49.232;9.222;2022-07-01T09:59:38;1.73;;;1.63;;
20080;SDS011;10200;49.232;9.222;2022-07-01T10:02:04;2.60;;;1.77;;
20080;SDS011;10200;49.232;9.222;2022-07-01T10:04:34;3.77;;;2.30;;
20080;SDS011;10200;49.232;9.222;2022-07-01T10:12:42;2.40;;;2.20;;
20080;SDS011;10200;49.232;9.222;2022-07-01T10:15:11;1.50;;;1.40;;
20080;SDS011;10200;49.232;9.222;2022-07-01T10:17:44;3.72;;;1.60;;
20080;SDS011;10200;49.232;9.222;2022-07-01T10:20:12;2.50;;;1.90;;
20080;SDS011;10200;49.232;9.222;2022-07-01T10:22:41;2.13;;;1.87;;
20080;SDS011;10200;49.232;9.222;2022-07-01T10:28:12;2.07;;;1.87;;
20080;SDS011;10200;49.232;9.222;2022-07-01T10:30:51;1.80;;;1.53;;
20080;SDS011;10200;49.232;9.222;2022-07-01T10:41:29;1.70;;;1.60;;
20080;SDS011;10200;49.232;9.222;2022-07-01T10:43:56;1.77;;;1.67;;
20080;SDS011;10200;49.232;9.222;2022-07-01T10:46:41;5.70;;;1.93;;
20080;SDS011;10200;49.232;9.222;2022-07-01T10:51:50;2.00;;;1.52;;
20080;SDS011;10200;49.232;9.222;2022-07-01T10:55:03;3.22;;;1.85;;
20080;SDS011;10200;49.232;9.222;2022-07-01T11:02:18;1.92;;;1.30;;
20080;SDS011;10200;49.232;9.222;2022-07-01T11:04:44;1.58;;;1.48;;
20080;SDS011;10200;49.232;9.222;2022-07-01T11:07:10;1.48;;;1.10;;
20080;SDS011;10200;49.232;9.222;2022-07-01T11:09:36;1.30;;;1.20;;
20080;SDS011;10200;49.232;9.222;2022-07-01T11:12:02;1.63;;;1.50;;
20080;SDS011;10200;49.232;9.222;2022-07-01T11:14:32;2.75;;;1.33;;
20080;SDS011;10200;49.232;9.222;2022-07-01T11:16:59;2.53;;;1.50;;
20080;SDS011;10200;49.232;9.222;2022-07-01T11:19:25;2.63;;;1.77;;
20080;SDS011;10200;49.232;9.222;2022-07-01T11:21:51;2.45;;;1.45;;
20080;SDS011;10200;49.232;9.222;2022-07-01T11:24:17;1.50;;;1.30;;
20080;SDS011;10200;49.232;9.222;2022-07-01T11:26:43;1.05;;;1.00;;
20080;SDS011;10200;49.232;9.222;2022-07-01T11:29:10;1.42;;;1.33;;
20080;SDS011;10200;49.232;9.222;2022-07-01T11:31:36;1.55;;;1.05;;
20080;SDS011;10200;49.232;9.222;2022-07-01T11:34:02;2.70;;;1.10;;
20080;SDS011;10200;49.232;9.222;2022-07-01T11:36:28;3.50;;;0.90;;
20080;SDS011;10200;49.232;9.222;2022-07-01T11:39:13;1.17;;;0.90;;
20080;SDS011;10200;49.232;9.222;2022-07-01T11:41:51;1.08;;;0.90;;
20080;SDS011;10200;49.232;9.222;2022-07-01T11:44:27;0.93;;;0.93;;
20080;SDS011;10200;49.232;9.222;2022-07-01T11:47:07;1.00;;;1.00;;
20080;SDS011;10200;49.232;9.222;2022-07-01T11:49:43;2.58;;;0.90;;
20080;SDS011;10200;49.232;9.222;2022-07-01T11:52:11;1.17;;;0.90;;
20080;SDS011;10200;49.232;9.222;2022-07-01T11:54:37;3.15;;;1.17;;
20080;SDS011;10200;49.232;9.222;2022-07-01T11:57:11;1.00;;;0.80;;
20080;SDS011;10200;49.232;9.222;2022-07-01T11:59:44;4.20;;;1.13;;
20080;SDS011;10200;49.232;9.222;2022-07-01T12:02:11;1.73;;;0.95;;
20080;SDS011;10200;49.232;9.222;2022-07-01T12:04:39;1.00;;;0.82;;
20080;SDS011;10200;49.232;9.222;2022-07-01T12:07:05;0.80;;;0.80;;
20080;SDS011;10200;49.232;9.222;2022-07-01T12:09:32;1.10;;;0.80;;
20080;SDS011;10200;49.232;9.222;2022-07-01T12:11:58;1.15;;;0.80;;
20080;SDS011;10200;49.232;9.222;2022-07-01T12:14:28;2.65;;;0.80;;
20080;SDS011;10200;49.232;9.222;2022-07-01T12:17:05;0.80;;;0.80;;
20080;SDS011;10200;49.232;9.222;2022-07-01T12:19:40;2.35;;;0.80;;
20080;SDS011;10200;49.232;9.222;2022-07-01T12:22:12;2.28;;;1.15;;
20080;SDS011;10200;49.232;9.222;2022-07-01T12:25:05;4.78;;;1.08;;
20080;SDS011;10200;49.232;9.222;2022-07-01T12:27:40;1.45;;;0.93;;
20080;SDS011;10200;49.232;9.222;2022-07-01T12:30:08;1.15;;;0.80;;
20080;SDS011;10200;49.232;9.222;2022-07-01T12:32:36;1.00;;;0.75;;
20080;SDS011;10200;49.232;9.222;2022-07-01T12:35:04;0.93;;;0.85;;
20080;SDS011;10200;49.232;9.222;2022-07-01T12:37:51;0.73;;;0.73;;
20080;SDS011;10200;49.232;9.222;2022-07-01T12:40:21;1.08;;;0.98;;
20080;SDS011;10200;49.232;9.222;2022-07-01T12:42:54;2.08;;;1.27;;
20080;SDS011;10200;49.232;9.222;2022-07-01T12:45:24;1.52;;;0.70;;
20080;SDS011;10200;49.232;9.222;2022-07-01T12:47:51;1.98;;;0.85;;
20080;SDS011;10200;49.232;9.222;2022-07-01T12:55:24;0.70;;;0.60;;
20080;SDS011;10200;49.232;9.222;2022-07-01T12:57:51;1.02;;;0.60;;
20080;SDS011;10200;49.232;9.222;2022-07-01T13:00:18;1.80;;;1.02;;
20080;SDS011;10200;49.232;9.222;2022-07-01T13:02:45;2.13;;;0.70;;
20080;SDS011;10200;49.232;9.222;2022-07-01T13:05:11;2.92;;;0.90;;
20080;SDS011;10200;49.232;9.222;2022-07-01T13:07:38;1.17;;;0.82;;
20080;SDS011;10200;49.232;9.222;2022-07-01T13:10:04;2.05;;;0.82;;
20080;SDS011;10200;49.232;9.222;2022-07-01T13:12:30;1.85;;;0.90;;
20080;SDS011;10200;49.232;9.222;2022-07-01T13:14:56;0.82;;;0.70;;
20080;SDS011;10200;49.232;9.222;2022-07-01T13:17:22;0.70;;;0.70;;
20080;SDS011;10200;49.232;9.222;2022-07-01T13:19:49;0.70;;;0.70;;
20080;SDS011;10200;49.232;9.222;2022-07-01T13:22:15;1.38;;;1.00;;
20080;SDS011;10200;49.232;9.222;2022-07-01T13:24:40;1.17;;;1.08;;
20080;SDS011;10200;49.232;9.222;2022-07-01T13:27:06;1.58;;;1.00;;
20080;SDS011;10200;49.232;9.222;2022-07-01T13:29:32;1.65;;;0.98;;
20080;SDS011;10200;49.232;9.222;2022-07-01T13:31:57;2.60;;;1.00;;
20080;SDS011;10200;49.232;9.222;2022-07-01T13:34:23;1.13;;;0.90;;
20080;SDS011;10200;49.232;9.222;2022-07-01T13:36:48;1.20;;;0.70;;
20080;SDS011;10200;49.232;9.222;2022-07-01T13:39:15;2.00;;;0.70;;
20080;SDS011;10200;49.232;9.222;2022-07-01T13:41:40;1.88;;;0.90;;
20080;SDS011;10200;49.232;9.222;2022-07-01T13:44:06;1.33;;;0.80;;
20080;SDS011;10200;49.232;9.222;2022-07-01T13:46:31;0.65;;;0.65;;
20080;SDS011;10200;49.232;9.222;2022-07-01T13:48:57;3.00;;;0.73;;
20080;SDS011;10200;49.232;9.222;2022-07-01T13:51:23;1.70;;;0.82;;
20080;SDS011;10200;49.232;9.222;2022-07-01T13:53:48;0.90;;;0.75;;
20080;SDS011;10200;49.232;9.222;2022-07-01T13:56:14;1.92;;;1.00;;
20080;SDS011;10200;49.232;9.222;2022-07-01T13:58:39;1.60;;;0.90;;
20080;SDS011;10200;49.232;9.222;2022-07-01T14:01:05;3.55;;;0.90;;
20080;SDS011;10200;49.232;9.222;2022-07-01T14:03:31;2.08;;;0.90;;
20080;SDS011;10200;49.232;9.222;2022-07-01T14:05:57;1.35;;;0.80;;
20080;SDS011;10200;49.232;9.222;2022-07-01T14:08:22;1.90;;;1.00;;
20080;SDS011;10200;49.232;9.222;2022-07-01T14:10:48;1.50;;;0.70;;
20080;SDS011;10200;49.232;9.222;2022-07-01T14:13:13;2.10;;;0.70;;
20080;SDS011;10200;49.232;9.222;2022-07-01T14:15:39;0.65;;;0.65;;
20080;SDS011;10200;49.232;9.222;2022-07-01T14:18:04;1.45;;;0.80;;
20080;SDS011;10200;49.232;9.222;2022-07-01T14:20:30;1.35;;;0.95;;
20080;SDS011;10200;49.232;9.222;2022-07-01T14:22:56;1.10;;;0.70;;
20080;SDS011;10200;49.232;9.222;2022-07-01T14:25:21;1.15;;;0.90;;
20080;SDS011;10200;49.232;9.222;2022-07-01T14:27:47;1.85;;;0.70;;
20080;SDS011;10200;49.232;9.222;2022-07-01T14:30:14;2.90;;;0.93;;
20080;SDS011;10200;49.232;9.222;2022-07-01T14:32:40;3.20;;;0.80;;
20080;SDS011;10200;49.232;9.222;2022-07-01T14:35:07;2.53;;;1.00;;
20080;SDS011;10200;49.232;9.222;2022-07-01T14:37:33;1.42;;;0.73;;
20080;SDS011;10200;49.232;9.222;2022-07-01T14:39:59;1.23;;;0.80;;
20080;SDS011;10200;49.232;9.222;2022-07-01T14:42:25;2.35;;;0.90;;
20080;SDS011;10200;49.232;9.222;2022-07-01T14:44:52;2.60;;;0.95;;
20080;SDS011;10200;49.232;9.222;2022-07-01T14:47:18;0.93;;;0.80;;
20080;SDS011;10200;49.232;9.222;2022-07-01T14:49:44;0.60;;;0.60;;
20080;SDS011;10200;49.232;9.222;2022-07-01T14:52:10;0.75;;;0.73;;
20080;SDS011;10200;49.232;9.222;2022-07-01T14:54:37;1.30;;;0.70;;
20080;SDS011;10200;49.232;9.222;2022-07-01T14:57:04;1.00;;;0.90;;
20080;SDS011;10200;49.232;9.222;2022-07-01T14:59:30;1.73;;;0.80;;
20080;SDS011;10200;49.232;9.222;2022-07-01T15:01:56;1.73;;;0.82;;
20080;SDS011;10200;49.232;9.222;2022-07-01T15:04:25;0.60;;;0.60;;
20080;SDS011;10200;49.232;9.222;2022-07-01T15:06:51;4.53;;;0.77;;
20080;SDS011;10200;49.232;9.222;2022-07-01T15:09:17;1.00;;;0.80;;
20080;SDS011;10200;49.232;9.222;2022-07-01T15:11:46;1.45;;;0.68;;
20080;SDS011;10200;49.232;9.222;2022-07-01T15:14:13;0.60;;;0.60;;
20080;SDS011;10200;49.232;9.222;2022-07-01T15:16:39;0.77;;;0.70;;
20080;SDS011;10200;49.232;9.222;2022-07-01T15:19:04;0.70;;;0.70;;
20080;SDS011;10200;49.232;9.222;2022-07-01T15:21:30;0.65;;;0.60;;
20080;SDS011;10200;49.232;9.222;2022-07-01T15:23:56;0.85;;;0.65;;